Time;durP1;ratioP1;P1;durP2;ratioP2;P2;SDS_P1;SDS_P2;PMS_P1;PMS_P2;Temp;Humidity;BMP_temperature;BMP_pressure;BME280_temperature;BME280_humidity;BME280_pressure;Samples;Min_cycle;Max_cycle;Signal;HPM_P1;HPM_P2
2022/11/10 00:01:53;;;;;;;;;;;;;;;;;;5054245;28;19924;-60
2022/11/10 00:04:18;;;;;;;;;;;;;;;;;;5057634;28;19920;-63
2022/11/10 00:06:44;;;;;;;;;;;;;;;;;;5055666;28;20302;-60
2022/11/10 00:09:10;;;;;;;;;;;;;;;;;;5054518;28;19947;-60
2022/11/10 00:11:36;;;;;;;;;;;;;;;;;;5054958;28;20016;-62
2022/11/10 00:17:03;;;;;;;;;;;;;;;;;;5055680;28;19921;-62
2022/11/10 00:19:29;;;;;;;;;;;;;;;;;;5054944;28;19924;-61
2022/11/10 00:21:55;;;;;;;;;;;;;;;;;;5055067;28;20054;-62
2022/11/10 00:24:21;;;;;;;;;;;;;;;;;;5055466;28;19924;-62
2022/11/10 00:26:46;;;;;;;;;;;;;;;;;;5055945;28;20040;-62
2022/11/10 00:29:12;;;;;;;;;;;;;;;;;;5054839;28;19925;-61
2022/11/10 00:31:38;;;;;;;;;;;;;;;;;;5055189;28;19965;-61
2022/11/10 00:34:04;;;;;;;;;;;;;;;;;;5056056;28;20279;-62
2022/11/10 00:36:30;;;;;;;;;;;;;;;;;;5054695;28;20165;-61
2022/11/10 00:38:56;;;;;;;;;;;;;;;;;;5056199;28;19924;-61
2022/11/10 00:41:22;;;;;;;;;;;;;;;;;;5052565;28;19989;-62
2022/11/10 00:43:48;;;;;;;;;;;;;;;;;;5053440;28;20016;-62
2022/11/10 00:46:14;;;;;;;;;;;;;;;;;;5058334;28;19920;-62
2022/11/10 00:48:39;;;;;;;;;;;;;;;;;;5055032;28;20471;-62
2022/11/10 00:51:05;;;;;;;;;;;;;;;;;;5052541;28;19931;-62
2022/11/10 00:53:31;;;;;;;;;;;;;;;;;;5050855;28;19940;-61
2022/11/10 00:55:57;;;;;;;;;;;;;;;;;;5057734;28;20469;-61
2022/11/10 00:58:23;;;;;;;;;;;;;;;;;;5055090;28;19928;-61
2022/11/10 01:00:49;;;;;;;;;;;;;;;;;;5055377;28;19974;-61
2022/11/10 01:03:15;;;;;;;;;;;;;;;;;;5056722;28;19955;-61
2022/11/10 01:05:41;;;;;;;;;;;;;;;;;;5053016;28;19920;-61
2022/11/10 01:08:07;;;;;;;;;;;;;;;;;;5057231;28;19924;-61
2022/11/10 01:10:33;;;;;;;;;;;;;;;;;;5057584;28;19920;-62
2022/11/10 01:12:59;;;;;;;;;;;;;;;;;;5053179;28;19924;-61
2022/11/10 01:15:24;;;;;;;;;;;;;;;;;;5056783;28;19927;-61
2022/11/10 01:17:50;;;;;;;;;;;;;;;;;;5058801;28;20318;-61
2022/11/10 01:20:16;;;;;;;;;;;;;;;;;;5061818;28;19920;-61
2022/11/10 01:22:42;;;;;;;;;;;;;;;;;;5059688;28;20062;-61
2022/11/10 01:25:08;;;;;;;;;;;;;;;;;;5061069;28;20295;-61
2022/11/10 01:27:34;;;;;;;;;;;;;;;;;;5058050;28;19920;-61
2022/11/10 01:30:00;;;;;;;;;;;;;;;;;;5059808;28;19920;-61
2022/11/10 01:32:26;;;;;;;;;;;;;;;;;;5057794;28;19920;-61
2022/11/10 01:34:52;;;;;;;;;;;;;;;;;;5060292;28;19932;-61
2022/11/10 01:37:18;;;;;;;;;;;;;;;;;;5061639;28;20344;-61
2022/11/10 01:39:43;;;;;;;;;;;;;;;;;;5060747;28;19964;-61
2022/11/10 01:42:09;;;;;;;;;;;;;;;;;;5056226;28;19943;-61
2022/11/10 01:44:35;;;;;;;;;;;;;;;;;;5059094;28;19947;-61
2022/11/10 01:47:01;;;;;;;;;;;;;;;;;;5057196;28;19973;-62
2022/11/10 01:49:27;;;;;;;;;;;;;;;;;;5055594;28;19925;-61
2022/11/10 01:51:53;;;;;;;;;;;;;;;;;;5059285;28;20528;-62
2022/11/10 01:54:19;;;;;;;;;;;;;;;;;;5060368;28;19921;-61
2022/11/10 01:56:45;;;;;;;;;;;;;;;;;;5059686;28;19935;-61
2022/11/10 01:59:11;;;;;;;;;;;;;;;;;;5054069;28;19920;-62
2022/11/10 02:01:37;;;;;;;;;;;;;;;;;;5057543;28;19932;-62
2022/11/10 02:04:03;;;;;;;;;;;;;;;;;;5059553;28;19927;-61
2022/11/10 02:06:29;;;;;;;;;;;;;;;;;;5056998;28;19931;-62
2022/11/10 02:08:55;;;;;;;;;;;;;;;;;;5057786;28;20283;-61
2022/11/10 02:11:20;;;;;;;;;;;;;;;;;;5057384;28;19970;-62
2022/11/10 02:13:46;;;;;;;;;;;;;;;;;;5059513;28;19921;-61
2022/11/10 02:16:12;;;;;;;;;;;;;;;;;;5060087;28;19928;-61
2022/11/10 02:18:38;;;;;;;;;;;;;;;;;;5059286;28;20477;-61
2022/11/10 02:21:04;;;;;;;;;;;;;;;;;;5052957;28;20054;-61
2022/11/10 02:23:30;;;;;;;;;;;;;;;;;;5058937;28;19927;-61
2022/11/10 02:25:56;;;;;;;;;;;;;;;;;;5041079;28;20011;-61
2022/11/10 02:28:22;;;;;;;;;;;;;;;;;;5059473;28;20509;-61
2022/11/10 02:30:48;;;;;;;;;;;;;;;;;;5055536;28;19921;-61
2022/11/10 02:33:16;;;;;;;;;;;;;;;;;;5041482;28;19974;-62
2022/11/10 02:35:42;;;;;;;;;;;;;;;;;;5057725;28;19929;-61
2022/11/10 02:38:08;;;;;;;;;;;;;;;;;;5056738;28;19924;-61
2022/11/10 02:40:34;;;;;;;;;;;;;;;;;;5058588;28;20279;-61
2022/11/10 02:43:00;;;;;;;;;;;;;;;;;;5057497;28;19928;-61
2022/11/10 02:45:26;;;;;;;;;;;;;;;;;;5058310;28;19920;-61
2022/11/10 02:47:52;;;;;;;;;;;;;;;;;;5057988;28;19929;-61
2022/11/10 02:50:17;;;;;;;;;;;;;;;;;;5057933;28;19960;-61
2022/11/10 02:52:43;;;;;;;;;;;;;;;;;;5059683;28;19928;-61
2022/11/10 02:55:09;;;;;;;;;;;;;;;;;;5056524;28;19920;-61
2022/11/10 02:57:35;;;;;;;;;;;;;;;;;;5057163;28;20114;-61
2022/11/10 03:00:01;;;;;;;;;;;;;;;;;;5059242;28;19974;-61
2022/11/10 03:02:27;;;;;;;;;;;;;;;;;;5039446;28;19924;-62
2022/11/10 03:04:53;;;;;;;;;;;;;;;;;;5058302;28;19928;-61
2022/11/10 03:07:19;;;;;;;;;;;;;;;;;;5059730;28;19956;-61
2022/11/10 03:09:45;;;;;;;;;;;;;;;;;;5040590;28;19974;-61
2022/11/10 03:12:11;;;;;;;;;;;;;;;;;;5057143;28;19921;-61
2022/11/10 03:14:37;;;;;;;;;;;;;;;;;;5058836;28;20739;-60
2022/11/10 03:17:02;;;;;;;;;;;;;;;;;;5057130;28;19924;-61
2022/11/10 03:19:28;;;;;;;;;;;;;;;;;;5058227;28;19928;-61
2022/11/10 03:21:54;;;;;;;;;;;;;;;;;;5058765;28;19920;-61
2022/11/10 03:24:20;;;;;;;;;;;;;;;;;;5054262;28;19947;-61
2022/11/10 03:26:46;;;;;;;;;;;;;;;;;;5060445;28;19928;-61
2022/11/10 03:29:12;;;;;;;;;;;;;;;;;;5020906;28;20009;-61
2022/11/10 03:31:38;;;;;;;;;;;;;;;;;;5056896;28;19999;-61
2022/11/10 03:34:04;;;;;;;;;;;;;;;;;;5058166;28;19967;-60
2022/11/10 03:36:30;;;;;;;;;;;;;;;;;;5058956;28;20286;-61
2022/11/10 03:38:56;;;;;;;;;;;;;;;;;;5057199;28;19928;-61
2022/11/10 03:41:22;;;;;;;;;;;;;;;;;;5056095;28;19979;-62
2022/11/10 03:43:48;;;;;;;;;;;;;;;;;;5057632;28;19934;-61
2022/11/10 03:46:13;;;;;;;;;;;;;;;;;;5057503;28;20403;-61
2022/11/10 03:48:39;;;;;;;;;;;;;;;;;;5057441;28;19943;-61
2022/11/10 03:51:05;;;;;;;;;;;;;;;;;;5057621;28;19920;-61
2022/11/10 03:53:31;;;;;;;;;;;;;;;;;;5056320;28;19956;-61
2022/11/10 03:55:57;;;;;;;;;;;;;;;;;;5060107;28;20398;-61
2022/11/10 03:58:23;;;;;;;;;;;;;;;;;;5058048;28;19920;-61
2022/11/10 04:00:49;;;;;;;;;;;;;;;;;;5056253;28;19920;-61
2022/11/10 04:03:15;;;;;;;;;;;;;;;;;;5054974;28;19928;-61
2022/11/10 04:11:10;;;;;;;;;;;;;;;;;;5055826;28;19920;-61
2022/11/10 04:16:20;;;;;;;;;;;;;;;;;;5057068;28;20023;-62
2022/11/10 04:18:46;;;;;;;;;;;;;;;;;;5057221;28;20008;-61
2022/11/10 04:21:12;;;;;;;;;;;;;;;;;;5056425;28;19951;-61
2022/11/10 04:23:38;;;;;;;;;;;;;;;;;;5054964;28;19924;-61
2022/11/10 04:28:49;;;;;;;;;;;;;;;;;;5055541;28;19920;-61
2022/11/10 04:31:15;;;;;;;;;;;;;;;;;;5056285;28;20272;-61
2022/11/10 04:33:40;;;;;;;;;;;;;;;;;;5057424;28;19974;-61
2022/11/10 04:36:06;;;;;;;;;;;;;;;;;;5059057;28;19995;-60
2022/11/10 04:38:32;;;;;;;;;;;;;;;;;;5056009;28;20368;-60
2022/11/10 04:40:58;;;;;;;;;;;;;;;;;;5053606;28;20850;-61
2022/11/10 04:43:24;;;;;;;;;;;;;;;;;;5037495;28;19955;-61
2022/11/10 04:45:50;;;;;;;;;;;;;;;;;;5055411;28;19920;-61
2022/11/10 04:48:16;;;;;;;;;;;;;;;;;;5054613;28;19921;-61
2022/11/10 04:50:42;;;;;;;;;;;;;;;;;;5054065;28;20338;-61
2022/11/10 04:53:08;;;;;;;;;;;;;;;;;;5057190;28;19924;-60
2022/11/10 04:55:34;;;;;;;;;;;;;;;;;;5055457;28;19932;-61
2022/11/10 04:58:00;;;;;;;;;;;;;;;;;;5056629;28;19966;-61
2022/11/10 05:00:26;;;;;;;;;;;;;;;;;;5053377;28;20287;-61
2022/11/10 05:02:52;;;;;;;;;;;;;;;;;;5053984;28;20039;-61
2022/11/10 05:05:17;;;;;;;;;;;;;;;;;;5054224;28;20339;-61
2022/11/10 05:07:43;;;;;;;;;;;;;;;;;;5056457;28;20018;-61
2022/11/10 05:10:09;;;;;;;;;;;;;;;;;;5054770;28;20046;-61
2022/11/10 05:12:35;;;;;;;;;;;;;;;;;;5056234;28;19921;-61
2022/11/10 05:15:01;;;;;;;;;;;;;;;;;;5057910;28;20346;-60
2022/11/10 05:17:27;;;;;;;;;;;;;;;;;;5056388;28;19931;-60
2022/11/10 05:19:53;;;;;;;;;;;;;;;;;;5059281;28;19920;-61
2022/11/10 05:22:19;;;;;;;;;;;;;;;;;;5038046;28;19928;-61
2022/11/10 05:24:44;;;;;;;;;;;;;;;;;;5056569;28;19920;-61
2022/11/10 05:27:10;;;;;;;;;;;;;;;;;;5055563;28;20353;-61
2022/11/10 05:29:36;;;;;;;;;;;;;;;;;;5056625;28;19991;-61
2022/11/10 05:32:02;;;;;;;;;;;;;;;;;;5055514;28;19955;-61
2022/11/10 05:34:28;;;;;;;;;;;;;;;;;;5053689;28;20011;-61
2022/11/10 05:36:54;;;;;;;;;;;;;;;;;;5054395;28;19927;-60
2022/11/10 05:39:20;;;;;;;;;;;;;;;;;;5055627;28;19924;-61
2022/11/10 05:41:46;;;;;;;;;;;;;;;;;;5057204;28;20295;-61
2022/11/10 05:44:12;;;;;;;;;;;;;;;;;;5056054;28;19979;-61
2022/11/10 05:46:37;;;;;;;;;;;;;;;;;;5056970;28;19970;-61
2022/11/10 05:49:03;;;;;;;;;;;;;;;;;;5056908;28;20386;-61
2022/11/10 05:51:29;;;;;;;;;;;;;;;;;;5054398;28;19921;-61
2022/11/10 05:53:55;;;;;;;;;;;;;;;;;;5057127;28;19928;-61
2022/11/10 05:56:21;;;;;;;;;;;;;;;;;;5056387;28;19924;-61
2022/11/10 05:58:47;;;;;;;;;;;;;;;;;;5056857;28;19970;-61
2022/11/10 06:01:13;;;;;;;;;;;;;;;;;;5061357;28;19989;-61
2022/11/10 06:03:39;;;;;;;;;;;;;;;;;;5060767;28;19929;-61
2022/11/10 06:06:05;;;;;;;;;;;;;;;;;;5060807;28;20015;-60
2022/11/10 06:08:30;;;;;;;;;;;;;;;;;;5061203;28;20351;-61
2022/11/10 06:10:56;;;;;;;;;;;;;;;;;;5060005;28;19947;-62
2022/11/10 06:13:22;;;;;;;;;;;;;;;;;;5057995;28;20027;-61
2022/11/10 06:15:48;;;;;;;;;;;;;;;;;;5060230;28;20023;-60
2022/11/10 06:18:14;;;;;;;;;;;;;;;;;;5060061;28;19921;-61
2022/11/10 06:20:40;;;;;;;;;;;;;;;;;;5058966;28;19928;-61
2022/11/10 06:23:06;;;;;;;;;;;;;;;;;;5057959;28;19924;-61
2022/11/10 06:25:32;;;;;;;;;;;;;;;;;;5061761;28;19928;-61
2022/11/10 06:27:58;;;;;;;;;;;;;;;;;;5058962;28;19956;-61
2022/11/10 06:30:24;;;;;;;;;;;;;;;;;;5058818;28;20002;-61
2022/11/10 06:32:50;;;;;;;;;;;;;;;;;;5060002;28;19921;-61
2022/11/10 06:35:16;;;;;;;;;;;;;;;;;;5059283;28;19925;-60
2022/11/10 06:37:41;;;;;;;;;;;;;;;;;;5059235;28;19985;-61
2022/11/10 06:40:07;;;;;;;;;;;;;;;;;;5058076;28;19928;-61
2022/11/10 06:42:33;;;;;;;;;;;;;;;;;;5057464;28;20465;-61
2022/11/10 06:44:59;;;;;;;;;;;;;;;;;;5057307;28;19920;-61
2022/11/10 06:47:26;;;;;;;;;;;;;;;;;;5056808;28;19965;-60
2022/11/10 06:49:52;;;;;;;;;;;;;;;;;;5059182;28;19920;-62
2022/11/10 06:52:18;;;;;;;;;;;;;;;;;;5056581;28;19935;-61
2022/11/10 06:54:43;;;;;;;;;;;;;;;;;;5058171;28;19924;-60
2022/11/10 06:57:09;;;;;;;;;;;;;;;;;;5057182;28;19959;-61
2022/11/10 06:59:35;;;;;;;;;;;;;;;;;;5059589;28;20001;-61
2022/11/10 07:02:01;;;;;;;;;;;;;;;;;;5060010;28;19924;-61
2022/11/10 07:04:27;;;;;;;;;;;;;;;;;;5059389;28;19924;-61
2022/11/10 07:06:53;;;;;;;;;;;;;;;;;;5057849;28;20299;-61
2022/11/10 07:09:19;;;;;;;;;;;;;;;;;;5058066;28;19921;-61
2022/11/10 07:11:45;;;;;;;;;;;;;;;;;;5060207;28;19928;-61
2022/11/10 07:14:11;;;;;;;;;;;;;;;;;;5055023;28;19931;-60
2022/11/10 07:16:36;;;;;;;;;;;;;;;;;;5057462;28;19921;-61
2022/11/10 07:19:02;;;;;;;;;;;;;;;;;;5057726;28;19929;-61
2022/11/10 07:21:28;;;;;;;;;;;;;;;;;;5058709;28;19920;-61
2022/11/10 07:23:54;;;;;;;;;;;;;;;;;;5056596;28;20504;-62
2022/11/10 07:26:20;;;;;;;;;;;;;;;;;;5058962;28;20347;-61
2022/11/10 07:28:46;;;;;;;;;;;;;;;;;;5058593;28;19926;-61
2022/11/10 07:31:12;;;;;;;;;;;;;;;;;;5056470;28;20501;-61
2022/11/10 07:33:38;;;;;;;;;;;;;;;;;;5060565;28;19931;-61
2022/11/10 07:36:04;;;;;;;;;;;;;;;;;;5060071;28;19928;-61
2022/11/10 07:38:30;;;;;;;;;;;;;;;;;;5055928;28;19931;-61
2022/11/10 07:40:56;;;;;;;;;;;;;;;;;;5053334;28;19946;-61
2022/11/10 07:43:22;;;;;;;;;;;;;;;;;;5053931;28;20389;-61
2022/11/10 07:45:48;;;;;;;;;;;;;;;;;;5059391;28;19924;-61
2022/11/10 07:48:14;;;;;;;;;;;;;;;;;;5058011;28;19920;-61
2022/11/10 07:50:40;;;;;;;;;;;;;;;;;;5057272;28;20290;-61
2022/11/10 07:53:06;;;;;;;;;;;;;;;;;;5056620;28;19924;-61
2022/11/10 07:55:31;;;;;;;;;;;;;;;;;;5059141;28;20135;-61
2022/11/10 07:57:57;;;;;;;;;;;;;;;;;;5056216;28;20303;-61
2022/11/10 08:00:23;;;;;;;;;;;;;;;;;;5051368;28;19928;-61
2022/11/10 08:02:49;;;;;;;;;;;;;;;;;;5053243;28;19928;-62
2022/11/10 08:05:15;;;;;;;;;;;;;;;;;;5038554;28;19944;-62
2022/11/10 08:07:41;;;;;;;;;;;;;;;;;;5054033;28;20065;-61
2022/11/10 08:10:08;;;;;;;;;;;;;;;;;;5057087;28;19935;-61
2022/11/10 08:12:34;;;;;;;;;;;;;;;;;;5055833;28;20007;-61
2022/11/10 08:15:00;;;;;;;;;;;;;;;;;;5055225;28;19929;-62
2022/11/10 08:17:26;;;;;;;;;;;;;;;;;;5058712;28;20328;-61
2022/11/10 08:19:52;;;;;;;;;;;;;;;;;;5054945;28;19983;-62
2022/11/10 08:22:18;;;;;;;;;;;;;;;;;;5058377;28;20003;-62
2022/11/10 08:24:44;;;;;;;;;;;;;;;;;;5059905;28;20366;-61
2022/11/10 08:27:10;;;;;;;;;;;;;;;;;;5056255;28;19924;-61
2022/11/10 08:29:36;;;;;;;;;;;;;;;;;;5055204;28;20383;-61
2022/11/10 08:32:02;;;;;;;;;;;;;;;;;;5053443;28;19924;-61
2022/11/10 08:34:27;;;;;;;;;;;;;;;;;;5053188;28;20251;-62
2022/11/10 08:36:53;;;;;;;;;;;;;;;;;;5053230;28;20328;-61
2022/11/10 08:39:19;;;;;;;;;;;;;;;;;;5059234;28;19921;-61
2022/11/10 08:41:45;;;;;;;;;;;;;;;;;;5056033;28;20421;-62
2022/11/10 08:44:12;;;;;;;;;;;;;;;;;;5058532;28;19971;-62
2022/11/10 08:46:38;;;;;;;;;;;;;;;;;;5056361;28;19924;-61
2022/11/10 08:49:04;;;;;;;;;;;;;;;;;;5055933;28;19932;-61
2022/11/10 08:51:29;;;;;;;;;;;;;;;;;;5056097;28;19982;-61
2022/11/10 08:53:55;;;;;;;;;;;;;;;;;;5055238;28;19982;-59
2022/11/10 08:56:21;;;;;;;;;;;;;;;;;;5060159;28;20103;-58
2022/11/10 08:58:49;;;;;;;;;;;;;;;;;;5066672;28;20452;-58
2022/11/10 09:01:14;;;;;;;;;;;;;;;;;;5037641;28;19928;-61
2022/11/10 09:03:40;;;;;;;;;;;;;;;;;;5044283;28;19921;-61
2022/11/10 09:06:06;;;;;;;;;;;;;;;;;;5040871;28;19925;-63
2022/11/10 09:08:33;;;;;;;;;;;;;;;;;;5038713;28;19972;-61
2022/11/10 09:10:58;;;;;;;;;;;;;;;;;;5030881;28;19982;-62
2022/11/10 09:13:24;;;;;;;;;;;;;;;;;;5034413;28;19920;-62
2022/11/10 09:15:50;;;;;;;;;;;;;;;;;;5032196;28;19921;-62
2022/11/10 09:18:16;;;;;;;;;;;;;;;;;;5030865;28;20376;-62
2022/11/10 09:20:42;;;;;;;10.75;3.55;;;;;;;;;;5032912;28;19925;-61
2022/11/10 09:23:09;;;;;;;8.68;3.22;;;;;;;;;;5034449;28;20037;-61
2022/11/10 09:25:36;;;;;;;7.40;2.65;;;;;;;;;;5035594;28;20547;-61
2022/11/10 09:28:03;;;;;;;11.57;3.63;;;;;;;;;;5036214;28;20712;-62
2022/11/10 09:30:29;;;;;;;10.13;3.50;;;;;;;;;;5035188;28;20046;-61
2022/11/10 09:32:58;;;;;;;8.38;3.28;;;;;;;;;;5043175;28;20049;-61
2022/11/10 09:35:26;;;;;;;16.02;3.60;;;;;;;;;;5038994;28;20504;-61
2022/11/10 09:37:52;;;;;;;7.97;2.30;;;;;;;;;;5036602;28;20056;-61
2022/11/10 09:40:20;;;;;;;13.20;3.83;;;;;;;;;;5042588;28;20209;-61
2022/11/10 09:42:46;;;;;;;12.75;3.78;;;;;;;;;;5039801;28;20480;-61
2022/11/10 09:45:15;;;;;;;11.07;3.67;;;;;;;;;;5035241;28;20087;-61
2022/11/10 09:47:50;;;;;;;17.90;4.32;;;;;;;;;;5033035;28;20408;-61
2022/11/10 09:50:23;;;;;;;10.57;3.55;;;;;;;;;;5035245;28;20124;-61
2022/11/10 09:52:49;;;;;;;9.95;3.88;;;;;;;;;;5034896;28;20029;-61
2022/11/10 09:55:25;;;;;;;9.00;3.67;;;;;;;;;;5036741;28;20057;-62
2022/11/10 09:57:53;;;;;;;12.98;3.95;;;;;;;;;;5034864;28;20045;-61
2022/11/10 10:00:19;;;;;;;;;;;;;;;;;;5038210;28;20107;-61
2022/11/10 10:02:45;;;;;;;;;;;;;;;;;;5058697;28;20482;-61
2022/11/10 10:05:11;;;;;;;;;;;;;;;;;;5059271;28;19969;-61
2022/11/10 10:07:44;;;;;;;16.45;4.05;;;;;;;;;;5056520;28;20452;-62
2022/11/10 10:10:28;;;;;;;7.70;3.17;;;;;;;;;;5059605;28;20040;-61
2022/11/10 10:12:54;;;;;;;;;;;;;;;;;;5061272;28;20119;-61
2022/11/10 10:15:20;;;;;;;;;;;;;;;;;;5055669;28;20699;-61
2022/11/10 10:17:46;;;;;;;;;;;;;;;;;;5053270;28;19970;-61
2022/11/10 10:20:12;;;;;;;;;;;;;;;;;;5059246;28;19982;-61
2022/11/10 10:22:38;;;;;;;;;;;;;;;;;;5067237;28;20371;-62
2022/11/10 10:25:04;;;;;;;;;;;;;;;;;;5052971;28;19920;-61
2022/11/10 10:27:30;;;;;;;;;;;;;;;;;;5050754;28;19928;-58
2022/11/10 10:29:56;;;;;;;;;;;;;;;;;;5060462;28;19970;-61
2022/11/10 10:32:21;;;;;;;;;;;;;;;;;;5053986;28;19936;-61
2022/11/10 10:34:47;;;;;;;;;;;;;;;;;;5063357;28;19920;-61
2022/11/10 10:37:13;;;;;;;;;;;;;;;;;;5059346;28;19924;-62
2022/11/10 10:39:39;;;;;;;;;;;;;;;;;;5058215;28;20011;-61
2022/11/10 10:42:06;;;;;;;;;;;;;;;;;;5053828;28;19978;-61
2022/11/10 10:44:32;;;;;;;;;;;;;;;;;;5059484;28;20465;-61
2022/11/10 10:46:57;;;;;;;;;;;;;;;;;;5066268;28;20231;-61
2022/11/10 10:49:23;;;;;;;;;;;;;;;;;;5067537;28;19921;-61
2022/11/10 10:51:50;;;;;;;;;;;;;;;;;;5067809;28;20003;-61
2022/11/10 10:54:23;;;;;;;15.98;3.63;;;;;;;;;;5066807;28;20303;-61
2022/11/10 10:56:49;;;;;;;8.82;2.80;;;;;;;;;;5066783;28;20052;-62
2022/11/10 10:59:20;;;;;;;14.00;3.72;;;;;;;;;;5066287;28;20037;-61
2022/11/10 11:01:46;;;;;;;13.32;3.17;;;;;;;;;;5065608;28;20060;-61
2022/11/10 11:04:26;;;;;;;6.32;2.17;;;;;;;;;;5065947;28;20156;-61
2022/11/10 11:06:59;;;;;;;9.18;2.83;;;;;;;;;;5066118;28;20080;-62
2022/11/10 11:09:26;;;;;;;8.35;2.33;;;;;;;;;;5047427;28;20502;-61
2022/11/10 11:12:03;;;;;;;8.07;2.60;;;;;;;;;;5066547;28;20097;-61
2022/11/10 11:14:30;;;;;;;8.35;3.13;;;;;;;;;;5061784;28;20059;-61
2022/11/10 11:16:58;;;;;;;10.55;3.28;;;;;;;;;;5061442;28;20048;-61
2022/11/10 11:19:25;;;;;;;14.27;3.28;;;;;;;;;;5063174;28;20471;-61
2022/11/10 11:22:10;;;;;;;17.25;4.00;;;;;;;;;;5049239;28;20049;-61
2022/11/10 11:24:36;;;;;;;;;;;;;;;;;;5050255;28;20041;-61
2022/11/10 11:27:01;;;;;;;;;;;;;;;;;;5067391;28;20224;-61
2022/11/10 11:29:27;;;;;;;;;;;;;;;;;;5052465;28;19972;-61
2022/11/10 11:31:53;;;;;;;;;;;;;;;;;;5047705;28;19976;-61
2022/11/10 11:34:19;;;;;;;;;;;;;;;;;;5047915;28;20015;-61
2022/11/10 11:36:45;;;;;;;;;;;;;;;;;;5047528;28;19973;-61
2022/11/10 11:39:11;;;;;;;;;;;;;;;;;;5047755;28;19921;-61
2022/11/10 11:41:37;;;;;;;;;;;;;;;;;;5047695;28;20334;-61
2022/11/10 11:44:03;;;;;;;;;;;;;;;;;;5046596;28;19931;-61
2022/11/10 11:46:29;;;;;;;;;;;;;;;;;;5047226;28;19921;-61
2022/11/10 11:48:55;;;;;;;;;;;;;;;;;;5047109;28;19932;-61
2022/11/10 11:51:20;;;;;;;;;;;;;;;;;;5059268;28;20387;-61
2022/11/10 11:53:46;;;;;;;;;;;;;;;;;;5067551;28;19939;-61
2022/11/10 11:56:13;;;;;;;;;;;;;;;;;;5066581;28;19959;-61
2022/11/10 11:58:38;;;;;;;;;;;;;;;;;;5066481;28;20318;-61
2022/11/10 12:01:04;;;;;;;;;;;;;;;;;;5071500;28;19969;-61
2022/11/10 12:03:30;;;;;;;;;;;;;;;;;;5087129;28;19973;-61
2022/11/10 12:05:56;;;;;;;;;;;;;;;;;;5086423;28;20377;-61
2022/11/10 12:08:22;;;;;;;;;;;;;;;;;;5078361;28;20229;-61
2022/11/10 12:10:48;;;;;;;;;;;;;;;;;;5059481;28;19931;-61
2022/11/10 12:13:14;;;;;;;;;;;;;;;;;;5052072;28;20303;-61
2022/11/10 12:15:40;;;;;;;;;;;;;;;;;;5052566;28;19970;-61
2022/11/10 12:18:06;;;;;;;;;;;;;;;;;;5054776;28;19929;-61
2022/11/10 12:20:32;;;;;;;;;;;;;;;;;;5053914;28;20006;-60
2022/11/10 12:22:58;;;;;;;;;;;;;;;;;;5051401;28;19943;-61
2022/11/10 12:25:23;;;;;;;;;;;;;;;;;;5052685;28;19928;-60
2022/11/10 12:27:49;;;;;;;;;;;;;;;;;;5055099;28;19927;-60
2022/11/10 12:30:16;;;;;;;;;;;;;;;;;;5056556;28;20428;-60
2022/11/10 12:32:42;;;;;;;;;;;;;;;;;;5053028;28;20353;-61
2022/11/10 12:35:08;;;;;;;;;;;;;;;;;;5056619;28;20577;-60
2022/11/10 12:37:34;;;;;;;;;;;;;;;;;;5055620;28;19927;-60
2022/11/10 12:39:59;;;;;;;;;;;;;;;;;;5056820;28;19920;-60
2022/11/10 12:42:25;;;;;;;;;;;;;;;;;;5058680;28;20197;-60
2022/11/10 12:44:51;;;;;;;;;;;;;;;;;;5049567;28;19974;-60
2022/11/10 12:47:17;;;;;;;;;;;;;;;;;;5056249;28;19921;-61
2022/11/10 12:49:43;;;;;;;;;;;;;;;;;;5055955;28;19920;-60
2022/11/10 12:52:09;;;;;;;;;;;;;;;;;;5051780;28;19974;-60
2022/11/10 12:54:35;;;;;;;;;;;;;;;;;;5053301;28;19968;-60
2022/11/10 12:57:01;;;;;;;;;;;;;;;;;;5053740;28;20242;-61
2022/11/10 12:59:27;;;;;;;;;;;;;;;;;;5060387;28;20395;-60
2022/11/10 13:01:52;;;;;;;;;;;;;;;;;;5045607;28;19928;-60
2022/11/10 13:04:18;;;;;;;;;;;;;;;;;;5045812;28;20016;-60
2022/11/10 13:06:44;;;;;;;;;;;;;;;;;;5046651;28;19924;-60
2022/11/10 13:09:10;;;;;;;;;;;;;;;;;;5057071;28;20317;-60
2022/11/10 13:11:36;;;;;;;;;;;;;;;;;;5063310;28;19974;-60
2022/11/10 13:14:02;;;;;;;;;;;;;;;;;;5043080;28;19920;-60
2022/11/10 13:16:28;;;;;;;;;;;;;;;;;;5069466;28;19920;-60
2022/11/10 13:18:54;;;;;;;;;;;;;;;;;;5072637;28;19924;-61
2022/11/10 13:21:20;;;;;;;;;;;;;;;;;;5066437;28;19931;-60
2022/11/10 13:23:46;;;;;;;;;;;;;;;;;;5064033;28;20363;-60
2022/11/10 13:26:11;;;;;;;;;;;;;;;;;;5061148;28;19985;-60
2022/11/10 13:28:37;;;;;;;;;;;;;;;;;;5055023;28;19924;-61
2022/11/10 13:31:03;;;;;;;;;;;;;;;;;;5072438;28;19927;-60
2022/11/10 13:33:30;;;;;;;;;;;;;;;;;;5072168;28;19924;-60
2022/11/10 13:35:56;;;;;;;;;;;;;;;;;;5071913;28;20022;-60
2022/11/10 13:38:22;;;;;;;;;;;;;;;;;;5072178;28;20007;-61
2022/11/10 13:40:47;;;;;;;;;;;;;;;;;;5072589;28;19920;-60
2022/11/10 13:43:13;;;;;;;;;;;;;;;;;;5071915;28;19920;-60
2022/11/10 13:45:39;;;;;;;;;;;;;;;;;;5069709;28;19932;-60
2022/11/10 13:48:05;;;;;;;;;;;;;;;;;;5068708;28;20252;-56
2022/11/10 13:50:31;;;;;;;;;;;;;;;;;;5071483;28;19920;-57
2022/11/10 13:52:57;;;;;;;;;;;;;;;;;;5072511;28;19974;-62
2022/11/10 13:55:23;;;;;;;;;;;;;;;;;;5065833;28;20447;-62
2022/11/10 13:57:49;;;;;;;;;;;;;;;;;;5071510;28;19978;-61
2022/11/10 14:00:18;;;;;;;;;;;;;;;;;;5072638;28;20011;-60
2022/11/10 14:02:44;;;;;;;;;;;;;;;;;;5072810;28;19921;-61
2022/11/10 14:05:10;;;;;;;;;;;;;;;;;;5039150;28;20295;-61
2022/11/10 14:07:36;;;;;;;;;;;;;;;;;;5050955;28;19920;-61
2022/11/10 14:10:02;;;;;;;;;;;;;;;;;;5051763;28;19927;-61
2022/11/10 14:12:28;;;;;;;;;;;;;;;;;;5050540;28;19920;-61
2022/11/10 14:14:54;;;;;;;;;;;;;;;;;;5051382;28;19927;-61
2022/11/10 14:17:19;;;;;;;;;;;;;;;;;;5050095;28;19971;-61
2022/11/10 14:19:45;;;;;;;;;;;;;;;;;;5048143;28;19921;-61
2022/11/10 14:22:11;;;;;;;;;;;;;;;;;;5047406;28;19920;-61
2022/11/10 14:24:37;;;;;;;;;;;;;;;;;;5047453;28;19927;-61
2022/11/10 14:27:03;;;;;;;;;;;;;;;;;;5046924;28;19920;-61
2022/11/10 14:29:29;;;;;;;;;;;;;;;;;;5046841;28;19920;-61
2022/11/10 14:31:55;;;;;;;;;;;;;;;;;;5048265;28;20291;-61
2022/11/10 14:34:22;;;;;;;;;;;;;;;;;;5048851;28;19952;-61
2022/11/10 14:36:48;;;;;;;;;;;;;;;;;;5048795;28;19986;-61
2022/11/10 14:39:14;;;;;;;;;;;;;;;;;;5048245;28;19921;-61
2022/11/10 14:41:40;;;;;;;;;;;;;;;;;;5048859;28;19927;-60
2022/11/10 14:44:06;;;;;;;;;;;;;;;;;;5048577;28;19927;-61
2022/11/10 14:46:32;;;;;;;;;;;;;;;;;;5029734;28;20303;-61
2022/11/10 14:48:59;;;;;;;;;;;;;;;;;;5048821;28;19925;-61
2022/11/10 14:51:24;;;;;;;;;;;;;;;;;;5048472;28;20376;-61
2022/11/10 14:53:50;;;;;;;;;;;;;;;;;;5047949;28;20127;-61
2022/11/10 14:56:16;;;;;;;;;;;;;;;;;;5048591;28;20291;-61
2022/11/10 14:58:42;;;;;;;;;;;;;;;;;;5048615;28;19932;-61
2022/11/10 15:01:08;;;;;;;;;;;;;;;;;;5047583;28;19924;-60
2022/11/10 15:03:34;;;;;;;;;;;;;;;;;;5047838;28;19928;-61
2022/11/10 15:06:00;;;;;;;;;;;;;;;;;;5048263;28;19982;-61
2022/11/10 15:08:26;;;;;;;;;;;;;;;;;;5047456;28;19952;-61
2022/11/10 15:10:52;;;;;;;;;;;;;;;;;;5048292;28;19928;-61
2022/11/10 15:13:18;;;;;;;;;;;;;;;;;;5047785;28;19924;-61
2022/11/10 15:15:44;;;;;;;;;;;;;;;;;;5047989;28;20346;-61
2022/11/10 15:18:09;;;;;;;;;;;;;;;;;;5048380;28;19927;-61
2022/11/10 15:20:35;;;;;;;;;;;;;;;;;;5047883;28;19920;-61
2022/11/10 15:23:01;;;;;;;;;;;;;;;;;;5047206;28;20298;-61
2022/11/10 15:25:27;;;;;;;;;;;;;;;;;;5047588;28;20264;-61
2022/11/10 15:27:53;;;;;;;;;;;;;;;;;;5047999;28;19932;-61
2022/11/10 15:30:19;;;;;;;;;;;;;;;;;;5047045;28;19920;-61
2022/11/10 15:32:48;;;;;;;;;;;;;;;;;;5047351;28;19960;-61
2022/11/10 15:48:12;;;;;;;;;;;;;;;;;;5085292;28;20471;-61
2022/11/10 15:50:38;;;;;;;;;;;;;;;;;;5078215;28;19939;-61
2022/11/10 15:53:04;;;;;;;;;;;;;;;;;;5074473;28;19924;-61
2022/11/10 15:55:33;;;;;;;;;;;;;;;;;;5064365;28;19990;-61
2022/11/10 15:57:59;;;;;;;;;;;;;;;;;;5064423;28;19975;-61
2022/11/10 16:00:25;;;;;;;;;;;;;;;;;;5063335;28;19929;-61
2022/11/10 16:02:51;;;;;;;;;;;;;;;;;;5073720;28;19978;-61
2022/11/10 16:05:16;;;;;;;;;;;;;;;;;;5067549;28;20410;-61
2022/11/10 16:07:42;;;;;;;;;;;;;;;;;;5071853;28;19924;-61
2022/11/10 16:10:08;;;;;;;;;;;;;;;;;;5076142;28;20013;-62
2022/11/10 16:12:34;;;;;;;;;;;;;;;;;;5072252;28;19928;-61
2022/11/10 16:15:00;;;;;;;;;;;;;;;;;;5069780;28;19982;-61
2022/11/10 16:17:26;;;;;;;;;;;;;;;;;;5063958;28;19994;-61
2022/11/10 16:19:52;;;;;;;;;;;;;;;;;;5062844;28;20429;-61
2022/11/10 16:22:18;;;;;;;;;;;;;;;;;;5048349;28;19925;-61
2022/11/10 16:24:44;;;;;;;;;;;;;;;;;;5074816;28;20379;-61
2022/11/10 16:27:10;;;;;;;;;;;;;;;;;;5072984;28;19935;-61
2022/11/10 16:29:36;;;;;;;;;;;;;;;;;;5071723;28;19924;-62
2022/11/10 16:32:02;;;;;;;;;;;;;;;;;;5071767;28;19924;-61
2022/11/10 16:34:28;;;;;;;;;;;;;;;;;;5062804;28;20504;-61
2022/11/10 16:36:54;;;;;;;;;;;;;;;;;;5067986;28;20014;-61
2022/11/10 16:39:20;;;;;;;;;;;;;;;;;;5069824;28;19924;-61
2022/11/10 16:41:46;;;;;;;;;;;;;;;;;;5047323;28;19928;-61
2022/11/10 16:44:12;;;;;;;;;;;;;;;;;;5066755;28;20062;-61
2022/11/10 16:46:37;;;;;;;;;;;;;;;;;;5074067;28;19928;-62
2022/11/10 16:49:04;;;;;;;;;;;;;;;;;;5059603;28;19987;-61
2022/11/10 16:51:30;;;;;;;;;;;;;;;;;;5058277;28;19925;-61
2022/11/10 16:53:58;;;;;;;;;;;;;;;;;;5063240;28;19947;-61